createdAt,value
2018-10-16T00:01:33.105Z,14.83
2018-10-16T00:04:01.829Z,14.47
2018-10-16T00:06:30.596Z,15.03
2018-10-16T00:08:59.370Z,15.43
2018-10-16T00:11:28.152Z,15.10
2018-10-16T00:13:56.939Z,15.63
2018-10-16T00:16:25.672Z,15.37
2018-10-16T00:18:54.392Z,16.13
2018-10-16T00:21:23.095Z,14.77
2018-10-16T00:23:51.804Z,15.70
2018-10-16T00:26:20.514Z,14.53
2018-10-16T00:28:49.179Z,14.47
2018-10-16T00:31:17.871Z,15.10
2018-10-16T00:33:46.578Z,14.27
2018-10-16T00:36:15.318Z,15.10
2018-10-16T00:38:44.019Z,15.53
2018-10-16T00:41:12.734Z,14.77
2018-10-16T00:43:41.439Z,15.10
2018-10-16T00:46:10.147Z,15.50
2018-10-16T00:48:38.864Z,17.00
2018-10-16T00:51:07.597Z,14.80
2018-10-16T00:53:36.583Z,14.90
2018-10-16T00:56:05.453Z,15.00
2018-10-16T00:58:34.179Z,14.47
2018-10-16T01:01:02.942Z,15.03
2018-10-16T01:03:31.643Z,15.87
2018-10-16T01:06:00.380Z,16.53
2018-10-16T01:08:29.101Z,17.17
2018-10-16T01:10:57.813Z,16.70
2018-10-16T01:13:26.548Z,18.40
2018-10-16T01:15:55.236Z,16.60
2018-10-16T01:18:23.972Z,19.33
2018-10-16T01:20:52.690Z,19.63
2018-10-16T01:23:21.409Z,18.13
2018-10-16T01:25:50.120Z,19.10
2018-10-16T01:28:18.811Z,18.30
2018-10-16T01:30:47.520Z,18.70
2018-10-16T01:33:16.238Z,19.37
2018-10-16T01:35:44.929Z,20.00
2018-10-16T01:38:13.634Z,20.10
2018-10-16T01:40:42.319Z,19.80
2018-10-16T01:43:11.028Z,19.53
2018-10-16T01:45:39.756Z,19.63
2018-10-16T01:48:08.464Z,19.50
2018-10-16T01:50:37.160Z,19.20
2018-10-16T01:53:05.891Z,19.03
2018-10-16T01:55:34.601Z,18.60
2018-10-16T01:58:03.332Z,19.27
2018-10-16T02:00:32.045Z,18.87
2018-10-16T02:03:00.760Z,19.07
2018-10-16T02:05:29.493Z,18.83
2018-10-16T02:07:58.187Z,19.10
2018-10-16T02:10:26.897Z,19.80
2018-10-16T02:12:55.597Z,19.53
2018-10-16T02:15:24.312Z,19.83
2018-10-16T02:17:53.053Z,20.53
2018-10-16T02:20:21.762Z,21.03
2018-10-16T02:22:50.536Z,20.00
2018-10-16T02:25:19.226Z,18.43
2018-10-16T02:27:47.921Z,20.10
2018-10-16T02:30:16.626Z,21.20
2018-10-16T02:32:45.341Z,20.50
2018-10-16T02:35:14.090Z,20.10
2018-10-16T02:37:42.837Z,20.13
2018-10-16T02:40:11.856Z,20.93
2018-10-16T02:42:41.060Z,19.73
2018-10-16T02:45:10.992Z,19.90
2018-10-16T02:47:40.303Z,20.13
2018-10-16T02:50:10.189Z,21.07
2018-10-16T02:52:38.922Z,22.63
2018-10-16T02:55:08.991Z,21.67
2018-10-16T02:57:37.686Z,21.63
2018-10-16T03:00:06.506Z,21.37
2018-10-16T03:02:35.197Z,20.90
2018-10-16T03:05:03.931Z,22.57
2018-10-16T03:07:32.632Z,21.57
2018-10-16T03:10:01.343Z,21.73
2018-10-16T03:12:30.061Z,22.00
2018-10-16T03:14:58.770Z,22.67
2018-10-16T03:17:27.464Z,21.80
2018-10-16T03:19:56.166Z,21.53
2018-10-16T03:22:24.889Z,23.10
2018-10-16T03:24:53.590Z,22.67
2018-10-16T03:27:22.296Z,22.07
2018-10-16T03:29:51.023Z,22.50
2018-10-16T03:32:19.744Z,21.40
2018-10-16T03:34:48.452Z,21.77
2018-10-16T03:37:17.157Z,22.27
2018-10-16T03:39:45.866Z,22.00
2018-10-16T03:42:14.586Z,22.00
2018-10-16T03:44:43.304Z,21.90
2018-10-16T03:47:11.997Z,21.57
2018-10-16T03:49:40.681Z,21.90
2018-10-16T03:52:09.386Z,22.57
2018-10-16T03:54:38.100Z,22.97
2018-10-16T03:57:06.916Z,21.43
2018-10-16T03:59:35.608Z,23.17
2018-10-16T04:02:04.347Z,22.07
2018-10-16T04:04:33.041Z,23.10
2018-10-16T04:07:01.754Z,22.27
2018-10-16T04:09:30.449Z,22.40
2018-10-16T04:11:59.199Z,21.60
2018-10-16T04:14:27.904Z,22.07
2018-10-16T04:16:56.611Z,21.80
2018-10-16T04:19:25.317Z,22.60
2018-10-16T04:21:54.022Z,21.83
2018-10-16T04:24:22.721Z,22.50
2018-10-16T04:26:51.448Z,21.50
2018-10-16T04:29:20.220Z,21.87
2018-10-16T04:31:48.903Z,23.00
2018-10-16T04:34:17.611Z,22.50
2018-10-16T04:36:46.311Z,23.13
2018-10-16T04:39:15.382Z,23.17
2018-10-16T04:41:44.186Z,23.20
2018-10-16T04:44:12.860Z,22.97
2018-10-16T04:46:41.563Z,22.43
2018-10-16T04:49:10.269Z,22.23
2018-10-16T04:51:38.971Z,22.90
2018-10-16T04:54:07.683Z,22.83
2018-10-16T04:56:36.372Z,23.30
2018-10-16T04:59:05.147Z,23.37
2018-10-16T05:01:33.949Z,22.70
2018-10-16T05:04:02.753Z,23.27
2018-10-16T05:06:31.437Z,21.77
2018-10-16T05:09:00.165Z,22.53
2018-10-16T05:11:32.104Z,22.97
2018-10-16T05:14:00.814Z,22.83
2018-10-16T05:16:29.503Z,23.20
2018-10-16T05:18:58.215Z,21.13
2018-10-16T05:21:26.954Z,22.13
2018-10-16T05:23:55.633Z,22.03
2018-10-16T05:26:24.342Z,22.63
2018-10-16T05:28:53.051Z,23.53
2018-10-16T05:31:21.869Z,22.27
2018-10-16T05:33:50.482Z,23.30
2018-10-16T05:36:19.191Z,21.67
2018-10-16T05:38:47.923Z,22.00
2018-10-16T05:41:16.642Z,23.47
2018-10-16T05:43:45.348Z,23.83
2018-10-16T05:46:14.041Z,23.07
2018-10-16T05:48:42.774Z,23.17
2018-10-16T05:51:11.500Z,22.23
2018-10-16T05:53:40.272Z,22.73
2018-10-16T05:56:08.990Z,21.80
2018-10-16T05:58:37.719Z,22.93
2018-10-16T06:01:06.488Z,22.10
2018-10-16T06:03:35.187Z,21.80
2018-10-16T06:06:03.892Z,21.87
2018-10-16T06:08:32.580Z,21.87
2018-10-16T06:11:01.340Z,22.20
2018-10-16T06:13:30.017Z,22.43
2018-10-16T06:15:58.827Z,21.80
2018-10-16T06:18:27.476Z,23.40
2018-10-16T06:20:56.186Z,22.43
2018-10-16T06:23:25.059Z,23.30
2018-10-16T06:25:53.869Z,21.97
2018-10-16T06:28:26.767Z,22.43
2018-10-16T06:30:55.617Z,22.47
2018-10-16T06:33:28.798Z,21.97
2018-10-16T06:35:57.600Z,23.00
2018-10-16T06:38:26.303Z,22.87
2018-10-16T06:40:55.228Z,23.77
2018-10-16T06:43:23.796Z,23.07
2018-10-16T06:45:52.644Z,23.13
2018-10-16T06:48:21.704Z,23.93
2018-10-16T06:50:50.193Z,24.37
2018-10-16T06:53:18.954Z,22.90
2018-10-16T06:55:47.701Z,22.97
2018-10-16T06:58:16.488Z,23.37
2018-10-16T07:00:45.217Z,23.87
2018-10-16T07:03:13.954Z,24.17
2018-10-16T07:05:42.696Z,22.93
2018-10-16T07:08:11.469Z,23.30
2018-10-16T07:10:40.217Z,23.03
2018-10-16T07:13:08.947Z,23.37
2018-10-16T07:15:37.688Z,22.03
2018-10-16T07:18:06.698Z,22.73
2018-10-16T07:20:35.477Z,23.40
2018-10-16T07:23:04.266Z,22.93
2018-10-16T07:25:33.017Z,23.03
2018-10-16T07:28:01.790Z,23.07
2018-10-16T07:30:30.554Z,21.63
2018-10-16T07:32:59.271Z,23.30
2018-10-16T07:35:28.060Z,24.13
2018-10-16T07:37:56.919Z,24.23
2018-10-16T07:40:25.552Z,23.40
2018-10-16T07:42:54.269Z,23.60
2018-10-16T07:45:22.988Z,23.10
2018-10-16T07:47:51.720Z,23.33
2018-10-16T07:50:20.487Z,24.00
2018-10-16T07:52:49.205Z,22.97
2018-10-16T07:55:17.897Z,22.50
2018-10-16T07:57:46.607Z,23.33
2018-10-16T08:00:15.317Z,22.30
2018-10-16T08:02:44.523Z,22.20
2018-10-16T08:05:13.395Z,23.73
2018-10-16T08:07:42.485Z,22.30
2018-10-16T08:10:12.731Z,23.67
2018-10-16T08:12:41.595Z,22.50
2018-10-16T08:15:10.834Z,21.17
2018-10-16T08:17:40.001Z,19.20
2018-10-16T08:20:09.002Z,17.20
2018-10-16T08:22:37.908Z,15.80
2018-10-16T08:25:06.979Z,14.63
2018-10-16T08:27:35.742Z,13.43
2018-10-16T08:30:04.796Z,12.40
2018-10-16T08:32:33.552Z,10.10
2018-10-16T08:35:02.325Z,9.83
2018-10-16T08:39:47.891Z,9.17
2018-10-16T08:42:32.293Z,9.70
2018-10-16T08:45:13.792Z,10.17
2018-10-16T08:47:53.563Z,10.67
2018-10-16T08:50:34.298Z,10.67
2018-10-16T08:53:03.358Z,10.97
2018-10-16T08:55:32.060Z,10.90
2018-10-16T08:58:01.152Z,11.17
2018-10-16T09:00:29.912Z,10.90
2018-10-16T09:02:58.608Z,10.50
2018-10-16T09:05:27.562Z,12.27
2018-10-16T09:07:56.479Z,12.00
2018-10-16T09:10:25.523Z,11.20
2018-10-16T09:12:54.313Z,10.70
2018-10-16T09:15:23.784Z,9.70
2018-10-16T09:17:52.558Z,11.00
2018-10-16T09:20:21.393Z,11.13
2018-10-16T09:22:50.157Z,10.07
2018-10-16T09:25:18.932Z,10.17
2018-10-16T09:27:47.693Z,10.03
2018-10-16T09:30:16.458Z,10.23
2018-10-16T09:32:45.233Z,10.40
2018-10-16T09:35:14.144Z,11.50
2018-10-16T09:37:42.962Z,10.67
2018-10-16T09:40:12.792Z,10.93
2018-10-16T09:42:41.575Z,11.03
2018-10-16T09:45:11.189Z,11.17
2018-10-16T09:47:40.233Z,11.00
2018-10-16T09:50:10.139Z,10.37
2018-10-16T09:52:38.939Z,9.53
2018-10-16T09:55:08.713Z,8.43
2018-10-16T09:57:37.520Z,7.53
2018-10-16T10:00:09.121Z,6.43
2018-10-16T10:02:37.832Z,7.20
2018-10-16T10:05:06.634Z,6.23
2018-10-16T10:07:35.416Z,5.57
2018-10-16T10:10:04.184Z,6.27
2018-10-16T10:12:32.912Z,6.00
2018-10-16T10:15:01.640Z,6.33
2018-10-16T10:17:30.420Z,6.57
2018-10-16T10:19:59.146Z,6.40
2018-10-16T10:22:27.864Z,5.87
2018-10-16T10:24:56.607Z,5.50
2018-10-16T10:27:25.294Z,5.33
2018-10-16T10:29:54.053Z,5.17
2018-10-16T10:32:22.809Z,4.97
2018-10-16T10:34:51.557Z,4.70
2018-10-16T10:37:20.272Z,4.40
2018-10-16T10:39:49.004Z,3.60
2018-10-16T10:42:17.750Z,3.70
2018-10-16T10:44:46.694Z,3.40
2018-10-16T10:47:15.651Z,2.50
2018-10-16T10:49:44.399Z,3.40
2018-10-16T10:52:13.114Z,3.30
2018-10-16T10:54:41.865Z,3.30
2018-10-16T10:57:10.771Z,3.37
2018-10-16T10:59:40.237Z,3.37
2018-10-16T11:02:09.012Z,3.27
2018-10-16T11:04:37.732Z,2.77
2018-10-16T11:07:06.608Z,2.73
2018-10-16T11:09:35.330Z,2.50
2018-10-16T11:12:04.081Z,2.77
2018-10-16T11:14:32.792Z,2.37
2018-10-16T11:17:01.531Z,2.50
2018-10-16T11:19:30.343Z,2.80
2018-10-16T11:21:59.016Z,2.83
2018-10-16T11:24:27.765Z,2.40
2018-10-16T11:26:56.598Z,2.17
2018-10-16T11:29:25.287Z,1.93
2018-10-16T11:31:54.003Z,1.90
2018-10-16T11:34:22.728Z,2.03
2018-10-16T11:36:51.477Z,2.00
2018-10-16T11:39:20.169Z,2.30
2018-10-16T11:41:48.900Z,2.87
2018-10-16T11:44:17.631Z,2.60
2018-10-16T11:46:46.392Z,2.77
2018-10-16T11:49:15.101Z,2.70
2018-10-16T11:51:43.820Z,2.77
2018-10-16T11:54:12.927Z,2.37
2018-10-16T11:56:41.782Z,2.67
2018-10-16T11:59:10.556Z,1.93
2018-10-16T12:01:39.455Z,2.40
2018-10-16T12:04:08.191Z,2.20
2018-10-16T12:06:37.139Z,2.03
2018-10-16T12:09:08.906Z,2.20
2018-10-16T12:11:38.258Z,1.77
2018-10-16T12:14:07.547Z,1.53
2018-10-16T12:16:41.373Z,1.30
2018-10-16T12:19:16.042Z,1.50
2018-10-16T12:21:44.731Z,1.03
2018-10-16T12:24:13.503Z,1.20
2018-10-16T12:26:42.204Z,1.27
2018-10-16T12:29:10.936Z,1.47
2018-10-16T12:31:39.686Z,1.43
2018-10-16T12:34:08.376Z,1.50
2018-10-16T12:36:37.111Z,1.50
2018-10-16T12:39:08.310Z,1.57
2018-10-16T12:41:37.044Z,1.20
2018-10-16T12:44:06.082Z,1.03
2018-10-16T12:46:34.849Z,1.10
2018-10-16T12:49:03.572Z,1.27
2018-10-16T12:51:32.325Z,1.67
2018-10-16T12:54:01.082Z,1.50
2018-10-16T12:56:29.863Z,1.83
2018-10-16T12:58:58.725Z,1.80
2018-10-16T13:01:27.640Z,1.67
2018-10-16T13:03:56.349Z,1.97
2018-10-16T13:06:25.068Z,1.83
2018-10-16T13:08:53.867Z,1.80
2018-10-16T13:11:22.534Z,1.53
2018-10-16T13:13:51.312Z,1.70
2018-10-16T13:16:20.026Z,1.80
2018-10-16T13:18:48.750Z,1.90
2018-10-16T13:21:17.455Z,1.60
2018-10-16T13:23:46.239Z,1.73
2018-10-16T13:26:14.972Z,1.77
2018-10-16T13:28:43.753Z,1.70
2018-10-16T13:31:12.543Z,1.60
2018-10-16T13:33:41.292Z,1.50
2018-10-16T13:36:10.022Z,1.47
2018-10-16T13:38:38.788Z,1.40
2018-10-16T13:41:07.512Z,1.70
2018-10-16T13:43:36.236Z,1.50
2018-10-16T13:46:05.194Z,1.60
2018-10-16T13:48:33.948Z,1.63
2018-10-16T13:51:02.651Z,2.90
2018-10-16T13:53:31.368Z,2.93
2018-10-16T13:56:00.121Z,3.57
2018-10-16T13:58:28.880Z,3.50
2018-10-16T14:00:57.630Z,3.43
2018-10-16T14:03:26.387Z,2.93
2018-10-16T14:05:55.141Z,3.00
2018-10-16T14:08:23.913Z,3.83
2018-10-16T14:10:52.652Z,3.17
2018-10-16T14:13:21.393Z,3.63
2018-10-16T14:15:50.097Z,3.10
2018-10-16T14:18:18.778Z,4.07
2018-10-16T14:20:47.528Z,4.03
2018-10-16T14:23:16.199Z,4.87
2018-10-16T14:25:44.920Z,4.57
2018-10-16T14:28:13.772Z,4.10
2018-10-16T14:30:42.420Z,3.60
2018-10-16T14:33:11.557Z,3.23
2018-10-16T14:35:40.304Z,3.07
2018-10-16T14:38:09.118Z,3.27
2018-10-16T14:40:37.837Z,3.10
2018-10-16T14:43:06.587Z,2.83
2018-10-16T14:45:35.387Z,2.50
2018-10-16T14:48:04.291Z,2.30
2018-10-16T14:50:32.944Z,2.40
2018-10-16T14:53:01.668Z,2.30
2018-10-16T14:55:30.422Z,2.23
2018-10-16T14:57:59.162Z,2.30
2018-10-16T15:00:27.853Z,2.00
2018-10-16T15:02:56.552Z,1.97
2018-10-16T15:05:25.590Z,2.30
2018-10-16T15:07:54.476Z,2.13
2018-10-16T15:10:23.266Z,2.40
2018-10-16T15:12:51.937Z,2.27
2018-10-16T15:15:20.692Z,2.37
2018-10-16T15:17:49.429Z,2.13
2018-10-16T15:20:18.130Z,1.93
2018-10-16T15:22:46.900Z,1.70
2018-10-16T15:25:15.660Z,1.60
2018-10-16T15:27:44.371Z,1.80
2018-10-16T15:30:13.101Z,2.00
2018-10-16T15:32:41.967Z,1.50
2018-10-16T15:35:11.468Z,2.10
2018-10-16T15:37:40.315Z,1.40
2018-10-16T15:40:10.484Z,2.00
2018-10-16T15:42:39.203Z,1.77
2018-10-16T15:45:09.543Z,1.53
2018-10-16T15:47:38.361Z,2.03
2018-10-16T15:50:07.745Z,1.77
2018-10-16T15:52:36.491Z,1.90
2018-10-16T15:55:05.918Z,2.00
2018-10-16T15:57:34.691Z,1.90
2018-10-16T16:00:03.582Z,2.50
2018-10-16T16:02:32.444Z,2.43
2018-10-16T16:05:01.107Z,2.43
2018-10-16T16:07:29.946Z,2.10
2018-10-16T16:09:58.753Z,2.27
2018-10-16T16:12:27.506Z,2.07
2018-10-16T16:14:56.263Z,2.53
2018-10-16T16:17:25.081Z,2.53
2018-10-16T16:19:53.873Z,3.27
2018-10-16T16:22:22.772Z,3.57
2018-10-16T16:24:51.528Z,3.17
2018-10-16T16:27:20.330Z,2.80
2018-10-16T16:29:49.087Z,3.90
2018-10-16T16:32:18.079Z,3.30
2018-10-16T16:34:46.845Z,3.00
2018-10-16T16:37:15.585Z,3.30
2018-10-16T16:39:44.381Z,3.10
2018-10-16T16:42:13.109Z,3.80
2018-10-16T16:44:41.890Z,3.50
2018-10-16T16:47:10.775Z,3.03
2018-10-16T16:49:39.481Z,3.40
2018-10-16T16:52:08.226Z,3.33
2018-10-16T16:54:36.970Z,3.80
2018-10-16T16:57:05.920Z,3.50
2018-10-16T16:59:34.734Z,3.30
2018-10-16T17:02:03.647Z,3.00
2018-10-16T17:04:32.488Z,3.33
2018-10-16T17:07:01.171Z,3.60
2018-10-16T17:09:30.273Z,3.77
2018-10-16T17:11:59.138Z,3.37
2018-10-16T17:14:28.036Z,4.23
2018-10-16T17:16:56.817Z,5.00
2018-10-16T17:19:25.572Z,6.90
2018-10-16T17:21:54.691Z,4.90
2018-10-16T17:24:23.510Z,5.23
2018-10-16T17:26:52.426Z,4.60
2018-10-16T17:29:21.105Z,6.40
2018-10-16T17:31:50.502Z,8.00
2018-10-16T17:34:19.380Z,7.73
2018-10-16T17:36:48.131Z,8.00
2018-10-16T17:39:16.956Z,16.17
2018-10-16T17:41:45.688Z,14.40
2018-10-16T17:44:14.426Z,19.17
2018-10-16T17:46:43.199Z,17.20
2018-10-16T17:49:11.967Z,11.47
2018-10-16T17:51:40.691Z,7.43
2018-10-16T17:54:09.487Z,6.00
2018-10-16T17:56:38.253Z,5.63
2018-10-16T17:59:06.977Z,4.53
2018-10-16T18:01:35.855Z,5.00
2018-10-16T18:04:04.647Z,4.50
2018-10-16T18:06:33.455Z,4.67
2018-10-16T18:09:02.316Z,4.20
2018-10-16T18:11:31.109Z,3.97
2018-10-16T18:13:59.893Z,3.90
2018-10-16T18:16:28.656Z,3.50
2018-10-16T18:18:57.417Z,4.10
2018-10-16T18:21:26.166Z,4.60
2018-10-16T18:23:54.950Z,4.90
2018-10-16T18:26:23.916Z,5.07
2018-10-16T18:28:52.826Z,4.73
2018-10-16T18:31:21.610Z,4.53
2018-10-16T18:33:50.371Z,3.80
2018-10-16T18:36:19.160Z,4.13
2018-10-16T18:38:47.978Z,4.50
2018-10-16T18:41:16.730Z,3.93
2018-10-16T18:43:45.660Z,4.13
2018-10-16T18:46:14.526Z,4.20
2018-10-16T18:48:43.516Z,4.67
2018-10-16T18:51:12.423Z,4.03
2018-10-16T18:53:41.093Z,4.03
2018-10-16T18:56:09.862Z,4.53
2018-10-16T18:58:38.603Z,4.40
2018-10-16T19:01:07.330Z,4.47
2018-10-16T19:03:36.058Z,5.63
2018-10-16T19:06:04.797Z,4.33
2018-10-16T19:08:33.583Z,16.57
2018-10-16T19:11:02.344Z,4.40
2018-10-16T19:13:31.157Z,3.90
2018-10-16T19:15:59.937Z,4.80
2018-10-16T19:18:28.667Z,5.20
2018-10-16T19:20:57.446Z,4.70
2018-10-16T19:23:26.116Z,4.23
2018-10-16T19:25:54.852Z,3.97
2018-10-16T19:28:23.598Z,4.70
2018-10-16T19:30:52.353Z,4.27
2018-10-16T19:33:21.047Z,4.67
2018-10-16T19:35:49.788Z,4.40
2018-10-16T19:38:18.497Z,4.23
2018-10-16T19:40:47.945Z,4.17
2018-10-16T19:43:16.677Z,4.87
2018-10-16T19:45:45.496Z,4.87
2018-10-16T19:48:14.170Z,5.07
2018-10-16T19:50:42.868Z,4.33
2018-10-16T19:53:11.569Z,3.97
2018-10-16T19:55:40.249Z,3.80
2018-10-16T19:58:08.940Z,3.73
2018-10-16T20:00:37.700Z,3.90
2018-10-16T20:03:06.510Z,4.03
2018-10-16T20:05:35.223Z,4.03
2018-10-16T20:08:04.020Z,4.20
2018-10-16T20:10:32.774Z,4.43
2018-10-16T20:13:01.481Z,4.73
2018-10-16T20:15:30.269Z,4.60
2018-10-16T20:17:58.940Z,5.13
2018-10-16T20:20:27.628Z,4.73
2018-10-16T20:22:56.396Z,4.53
2018-10-16T20:25:25.185Z,5.40
2018-10-16T20:27:53.881Z,4.60
2018-10-16T20:30:22.576Z,4.90
2018-10-16T20:32:51.260Z,4.70
2018-10-16T20:35:19.952Z,5.07
2018-10-16T20:37:48.661Z,5.00
2018-10-16T20:40:17.447Z,5.03
2018-10-16T20:42:46.156Z,5.23
2018-10-16T20:45:14.870Z,4.87
2018-10-16T20:47:43.620Z,5.10
2018-10-16T20:50:12.334Z,5.67
2018-10-16T20:52:41.034Z,4.57
2018-10-16T20:55:10.263Z,4.57
2018-10-16T20:57:38.975Z,4.57
2018-10-16T21:00:08.232Z,4.60
2018-10-16T21:02:37.414Z,4.50
2018-10-16T21:05:07.302Z,5.20
2018-10-16T21:07:35.914Z,4.50
2018-10-16T21:10:04.860Z,4.73
2018-10-16T21:12:33.625Z,4.33
2018-10-16T21:15:02.367Z,4.20
2018-10-16T21:17:31.108Z,3.80
2018-10-16T21:19:59.797Z,4.03
2018-10-16T21:22:28.517Z,3.47
2018-10-16T21:24:57.218Z,3.60
2018-10-16T21:27:25.931Z,3.47
2018-10-16T21:29:54.636Z,3.37
2018-10-16T21:32:23.333Z,3.30
2018-10-16T21:34:52.032Z,3.67
2018-10-16T21:37:20.732Z,3.33
2018-10-16T21:39:49.452Z,2.87
2018-10-16T21:42:18.153Z,3.67
2018-10-16T21:44:46.837Z,3.77
2018-10-16T21:47:15.609Z,3.43
2018-10-16T21:49:44.220Z,3.60
2018-10-16T21:52:12.902Z,3.73
2018-10-16T21:54:41.599Z,4.03
2018-10-16T21:57:10.272Z,4.13
2018-10-16T21:59:39.081Z,4.00
2018-10-16T22:02:13.024Z,4.47
2018-10-16T22:04:41.745Z,4.40
2018-10-16T22:07:10.651Z,4.23
2018-10-16T22:09:39.290Z,4.30
2018-10-16T22:12:08.005Z,4.03
2018-10-16T22:14:36.729Z,4.20
2018-10-16T22:17:05.724Z,4.40
2018-10-16T22:19:34.425Z,4.10
2018-10-16T22:22:03.111Z,3.97
2018-10-16T22:24:31.776Z,4.73
2018-10-16T22:27:00.457Z,4.27
2018-10-16T22:29:29.200Z,4.03
2018-10-16T22:31:57.856Z,4.07
2018-10-16T22:34:26.539Z,4.00
2018-10-16T22:36:55.256Z,4.00
2018-10-16T22:39:23.938Z,4.10
2018-10-16T22:41:52.636Z,3.50
2018-10-16T22:44:21.316Z,3.83
2018-10-16T22:46:50.051Z,3.97
2018-10-16T22:49:18.735Z,3.93
2018-10-16T22:51:47.420Z,4.40
2018-10-16T22:54:16.100Z,4.90
2018-10-16T22:56:44.801Z,4.20
2018-10-16T22:59:13.496Z,4.20
2018-10-16T23:01:42.177Z,4.27
2018-10-16T23:04:10.869Z,4.20
2018-10-16T23:06:39.543Z,4.00
2018-10-16T23:09:09.209Z,4.23
2018-10-16T23:11:38.020Z,4.13
2018-10-16T23:14:06.873Z,4.30
2018-10-16T23:16:35.631Z,4.13
2018-10-16T23:19:04.414Z,4.00
2018-10-16T23:21:33.059Z,4.20
2018-10-16T23:24:01.775Z,4.20
2018-10-16T23:26:30.467Z,4.80
2018-10-16T23:28:59.207Z,4.00
2018-10-16T23:31:27.901Z,3.40
2018-10-16T23:33:56.583Z,3.87
2018-10-16T23:36:25.325Z,3.60
2018-10-16T23:38:54.003Z,3.40
2018-10-16T23:41:22.733Z,3.30
2018-10-16T23:43:51.437Z,2.70
2018-10-16T23:46:20.157Z,2.93
2018-10-16T23:48:48.841Z,2.57
2018-10-16T23:51:17.520Z,2.87
2018-10-16T23:53:46.215Z,2.37
2018-10-16T23:56:14.880Z,2.27
2018-10-16T23:58:43.573Z,2.67
